createdAt,value
2018-04-07T00:01:29.835Z,7.10
2018-04-07T00:03:57.487Z,7.10
2018-04-07T00:06:25.866Z,7.10
2018-04-07T00:08:53.507Z,7.10
2018-04-07T00:11:21.161Z,7.10
2018-04-07T00:13:48.776Z,7.10
2018-04-07T00:16:16.526Z,7.10
2018-04-07T00:18:44.295Z,7.10
2018-04-07T00:21:11.909Z,7.00
2018-04-07T00:23:39.524Z,7.00
2018-04-07T00:26:07.178Z,7.00
2018-04-07T00:28:35.550Z,7.00
2018-04-07T00:31:04.847Z,7.00
2018-04-07T00:33:32.575Z,7.00
2018-04-07T00:36:00.235Z,7.00
2018-04-07T00:38:27.847Z,7.00
2018-04-07T00:40:55.507Z,7.00
2018-04-07T00:43:23.120Z,7.00
2018-04-07T00:45:50.734Z,7.00
2018-04-07T00:48:18.388Z,7.00
2018-04-07T00:50:46.764Z,7.00
2018-04-07T00:53:14.384Z,7.00
2018-04-07T00:55:42.039Z,7.00
2018-04-07T00:58:09.655Z,7.00
2018-04-07T01:00:37.263Z,6.90
2018-04-07T01:03:05.679Z,6.90
2018-04-07T01:05:34.211Z,6.90
2018-04-07T01:08:01.823Z,6.90
2018-04-07T01:10:30.235Z,6.90
2018-04-07T01:12:57.870Z,6.90
2018-04-07T01:15:25.503Z,6.90
2018-04-07T01:17:53.154Z,6.90
2018-04-07T01:20:20.763Z,6.90
2018-04-07T01:22:48.377Z,6.90
2018-04-07T01:25:16.787Z,6.90
2018-04-07T01:27:44.411Z,6.90
2018-04-07T01:30:12.028Z,6.90
2018-04-07T01:32:39.685Z,6.90
2018-04-07T01:35:08.071Z,6.90
2018-04-07T01:37:36.450Z,6.90
2018-04-07T01:40:04.608Z,6.80
2018-04-07T01:42:32.212Z,6.80
2018-04-07T01:44:59.827Z,6.80
2018-04-07T01:47:27.582Z,6.80
2018-04-07T01:49:55.959Z,6.80
2018-04-07T01:52:24.335Z,6.80
2018-04-07T01:54:51.977Z,6.80
2018-04-07T01:57:19.589Z,6.80
2018-04-07T01:59:47.195Z,6.80
2018-04-07T02:02:14.848Z,6.80
2018-04-07T02:04:42.559Z,6.80
2018-04-07T02:07:10.243Z,6.80
2018-04-07T02:09:37.907Z,6.80
2018-04-07T02:12:05.513Z,6.80
2018-04-07T02:14:33.132Z,6.80
2018-04-07T02:17:00.926Z,6.80
2018-04-07T02:19:28.525Z,6.70
2018-04-07T02:21:56.138Z,6.80
2018-04-07T02:24:24.554Z,6.70
2018-04-07T02:26:52.166Z,6.70
2018-04-07T02:29:19.778Z,6.70
2018-04-07T02:31:48.434Z,6.70
2018-04-07T02:34:16.042Z,6.70
2018-04-07T02:36:44.423Z,6.70
2018-04-07T02:39:13.049Z,6.70
2018-04-07T02:41:40.671Z,6.70
2018-04-07T02:44:08.313Z,6.70
2018-04-07T02:46:36.058Z,6.70
2018-04-07T02:49:04.600Z,6.70
2018-04-07T02:51:32.221Z,6.70
2018-04-07T02:54:00.660Z,6.60
2018-04-07T02:56:28.275Z,6.60
2018-04-07T02:58:56.720Z,6.60
2018-04-07T03:01:24.387Z,6.50
2018-04-07T03:03:52.037Z,6.50
2018-04-07T03:06:19.658Z,6.50
2018-04-07T03:08:47.326Z,6.50
2018-04-07T03:11:14.950Z,6.50
2018-04-07T03:13:42.635Z,6.40
2018-04-07T03:16:10.426Z,6.40
2018-04-07T03:18:38.041Z,6.40
2018-04-07T03:21:06.419Z,6.40
2018-04-07T03:23:34.863Z,6.30
2018-04-07T03:26:02.488Z,6.40
2018-04-07T03:28:30.273Z,6.30
2018-04-07T03:30:57.942Z,6.30
2018-04-07T03:33:25.564Z,6.30
2018-04-07T03:35:53.184Z,6.30
2018-04-07T03:38:20.859Z,6.20
2018-04-07T03:40:48.487Z,6.20
2018-04-07T03:43:16.169Z,6.20
2018-04-07T03:45:43.844Z,6.20
2018-04-07T03:48:11.460Z,6.20
2018-04-07T03:50:39.085Z,6.20
2018-04-07T03:53:06.751Z,6.20
2018-04-07T03:55:35.347Z,6.10
2018-04-07T03:58:02.971Z,6.10
2018-04-07T04:00:30.640Z,6.10
2018-04-07T04:02:58.290Z,6.10
2018-04-07T04:05:25.918Z,6.10
2018-04-07T04:07:54.339Z,6.00
2018-04-07T04:10:21.954Z,6.00
2018-04-07T04:12:49.558Z,6.00
2018-04-07T04:15:17.223Z,6.00
2018-04-07T04:17:45.671Z,6.00
2018-04-07T04:20:13.287Z,5.90
2018-04-07T04:22:41.732Z,6.00
2018-04-07T04:25:09.339Z,6.00
2018-04-07T04:27:37.001Z,6.00
2018-04-07T04:30:05.223Z,6.00
2018-04-07T04:32:32.844Z,6.00
2018-04-07T04:35:00.455Z,6.00
2018-04-07T04:37:28.882Z,6.00
2018-04-07T04:39:56.490Z,6.00
2018-04-07T04:42:24.230Z,6.00
2018-04-07T04:44:51.887Z,6.00
2018-04-07T04:47:19.594Z,6.00
2018-04-07T04:49:47.260Z,6.00
2018-04-07T04:52:15.028Z,6.10
2018-04-07T04:54:42.698Z,6.10
2018-04-07T04:57:10.429Z,6.20
2018-04-07T04:59:38.971Z,6.20
2018-04-07T05:02:06.646Z,6.20
2018-04-07T05:04:35.179Z,6.20
2018-04-07T05:07:05.263Z,6.30
2018-04-07T05:09:32.941Z,6.30
2018-04-07T05:12:00.572Z,6.30
2018-04-07T05:14:29.006Z,6.40
2018-04-07T05:16:56.641Z,6.40
2018-04-07T05:19:24.311Z,6.40
2018-04-07T05:21:52.807Z,6.50
2018-04-07T05:24:21.196Z,6.60
2018-04-07T05:26:48.838Z,6.60
2018-04-07T05:29:16.494Z,6.90
2018-04-07T05:31:44.159Z,7.30
2018-04-07T05:34:11.823Z,7.40
2018-04-07T05:36:39.634Z,7.60
2018-04-07T05:39:07.275Z,7.40
2018-04-07T05:41:36.258Z,7.50
2018-04-07T05:44:05.618Z,7.40
2018-04-07T05:46:33.243Z,7.40
2018-04-07T05:49:01.618Z,7.50
2018-04-07T05:51:30.136Z,7.60
2018-04-07T05:53:57.752Z,7.60
2018-04-07T05:56:25.380Z,7.80
2018-04-07T05:58:53.051Z,8.00
2018-04-07T06:01:20.667Z,8.30
2018-04-07T06:03:48.358Z,8.60
2018-04-07T06:06:16.202Z,9.00
2018-04-07T06:08:43.814Z,9.10
2018-04-07T06:11:11.423Z,9.40
2018-04-07T06:13:39.133Z,9.50
2018-04-07T06:16:06.747Z,9.60
2018-04-07T06:18:35.204Z,10.20
2018-04-07T06:21:03.052Z,10.20
2018-04-07T06:23:30.736Z,10.70
2018-04-07T06:25:58.347Z,11.20
2018-04-07T06:28:26.062Z,11.20
2018-04-07T06:30:53.695Z,10.70
2018-04-07T06:33:21.311Z,10.40
2018-04-07T06:35:48.978Z,10.20
2018-04-07T06:38:16.684Z,10.20
2018-04-07T06:40:44.311Z,10.20
2018-04-07T06:43:12.751Z,10.70
2018-04-07T06:45:40.367Z,10.70
2018-04-07T06:48:08.872Z,10.80
2018-04-07T06:50:36.628Z,10.80
2018-04-07T06:53:04.256Z,10.60
2018-04-07T06:55:31.883Z,10.30
2018-04-07T06:58:00.322Z,10.20
2018-04-07T07:00:27.946Z,10.20
2018-04-07T07:02:56.338Z,10.40
2018-04-07T07:05:23.998Z,10.30
2018-04-07T07:07:51.716Z,10.50
2018-04-07T07:10:19.340Z,10.70
2018-04-07T07:12:47.079Z,10.80
2018-04-07T07:15:14.715Z,11.00
2018-04-07T07:17:43.106Z,11.60
2018-04-07T07:20:11.630Z,11.60
2018-04-07T07:22:39.247Z,11.60
2018-04-07T07:25:06.986Z,11.60
2018-04-07T07:27:34.748Z,11.50
2018-04-07T07:30:02.379Z,11.40
2018-04-07T07:32:29.996Z,11.60
2018-04-07T07:34:57.754Z,11.80
2018-04-07T07:37:26.174Z,12.40
2018-04-07T07:39:53.967Z,12.40
2018-04-07T07:42:21.720Z,12.70
2018-04-07T07:44:49.350Z,12.50
2018-04-07T07:47:17.011Z,12.20
2018-04-07T07:49:45.587Z,12.10
2018-04-07T07:52:13.249Z,12.10
2018-04-07T07:54:40.876Z,12.20
2018-04-07T07:57:09.308Z,12.70
2018-04-07T07:59:38.110Z,12.70
2018-04-07T08:02:05.865Z,12.70
2018-04-07T08:04:33.535Z,12.70
2018-04-07T08:07:01.560Z,12.80
2018-04-07T08:09:29.982Z,13.00
2018-04-07T08:11:57.667Z,13.00
2018-04-07T08:14:26.077Z,13.10
2018-04-07T08:16:53.771Z,13.10
2018-04-07T08:19:21.549Z,13.30
2018-04-07T08:21:49.163Z,13.50
2018-04-07T08:24:16.771Z,13.70
2018-04-07T08:26:44.471Z,13.70
2018-04-07T08:29:12.092Z,13.90
2018-04-07T08:31:40.471Z,14.00
2018-04-07T08:34:08.296Z,14.00
2018-04-07T08:36:35.923Z,14.00
2018-04-07T08:39:03.551Z,14.10
2018-04-07T08:41:31.219Z,14.00
2018-04-07T08:43:58.920Z,14.20
2018-04-07T08:46:26.554Z,14.30
2018-04-07T08:48:54.269Z,14.30
2018-04-07T08:51:21.910Z,14.40
2018-04-07T08:53:49.578Z,14.60
2018-04-07T08:56:17.408Z,14.80
2018-04-07T08:58:45.149Z,14.70
2018-04-07T09:01:12.955Z,14.60
2018-04-07T09:03:40.621Z,14.40
2018-04-07T09:06:08.251Z,14.50
2018-04-07T09:08:35.867Z,14.70
2018-04-07T09:11:03.549Z,15.00
2018-04-07T09:13:31.174Z,15.10
2018-04-07T09:15:59.361Z,15.30
2018-04-07T09:18:27.055Z,15.40
2018-04-07T09:20:55.887Z,15.60
2018-04-07T09:23:23.731Z,15.50
2018-04-07T09:25:51.926Z,15.50
2018-04-07T09:28:19.551Z,15.50
2018-04-07T09:30:47.946Z,15.50
2018-04-07T09:33:16.468Z,15.40
2018-04-07T09:35:44.804Z,15.40
2018-04-07T09:38:12.426Z,15.50
2018-04-07T09:40:40.087Z,15.80
2018-04-07T09:43:07.934Z,15.90
2018-04-07T09:45:35.572Z,15.90
2018-04-07T09:48:03.241Z,15.70
2018-04-07T09:50:30.987Z,15.70
2018-04-07T09:52:59.520Z,15.70
2018-04-07T09:55:27.178Z,15.90
2018-04-07T09:57:54.795Z,15.90
2018-04-07T10:00:22.415Z,15.80
2018-04-07T10:02:55.791Z,16.00
2018-04-07T10:05:24.179Z,16.20
2018-04-07T10:07:52.574Z,16.10
2018-04-07T10:10:21.007Z,16.20
2018-04-07T10:12:48.660Z,16.10
2018-04-07T10:15:16.282Z,16.00
2018-04-07T10:17:43.947Z,16.10
2018-04-07T10:20:11.595Z,16.20
2018-04-07T10:22:40.136Z,15.90
2018-04-07T10:25:07.792Z,15.90
2018-04-07T10:27:35.420Z,15.90
2018-04-07T10:30:03.871Z,16.30
2018-04-07T10:32:32.319Z,16.40
2018-04-07T10:34:59.944Z,16.40
2018-04-07T10:37:28.341Z,16.50
2018-04-07T10:39:56.865Z,16.60
2018-04-07T10:44:59.187Z,17.00
2018-04-07T10:47:26.798Z,17.00
2018-04-07T10:49:54.447Z,17.10
2018-04-07T10:52:22.115Z,17.20
2018-04-07T10:54:49.736Z,17.00
2018-04-07T10:57:18.123Z,16.80
2018-04-07T10:59:46.667Z,16.80
2018-04-07T11:02:14.341Z,16.80
2018-04-07T11:04:42.134Z,17.00
2018-04-07T11:07:10.795Z,17.20
2018-04-07T11:09:38.424Z,17.30
2018-04-07T11:12:06.047Z,17.30
2018-04-07T11:14:33.775Z,17.10
2018-04-07T11:17:01.399Z,17.00
2018-04-07T11:19:29.028Z,17.00
2018-04-07T11:21:57.467Z,17.00
2018-04-07T11:24:25.090Z,17.00
2018-04-07T11:26:54.227Z,17.30
2018-04-07T11:29:21.891Z,17.30
2018-04-07T11:31:49.584Z,17.40
2018-04-07T11:34:17.278Z,17.20
2018-04-07T11:36:44.959Z,17.30
2018-04-07T11:39:12.582Z,17.40
2018-04-07T11:41:40.926Z,17.50
2018-04-07T11:44:08.583Z,17.40
2018-04-07T11:46:36.235Z,17.40
2018-04-07T11:49:03.853Z,17.40
2018-04-07T11:51:31.583Z,17.50
2018-04-07T11:53:59.218Z,17.70
2018-04-07T11:56:26.978Z,17.80
2018-04-07T11:58:54.652Z,17.80
2018-04-07T12:01:22.320Z,17.60
2018-04-07T12:03:49.958Z,17.60
2018-04-07T12:06:17.663Z,17.70
2018-04-07T12:08:45.287Z,17.80
2018-04-07T12:11:13.701Z,17.90
2018-04-07T12:13:41.359Z,17.80
2018-04-07T12:16:09.004Z,18.00
2018-04-07T12:18:36.635Z,18.00
2018-04-07T12:21:04.407Z,18.00
2018-04-07T12:23:32.028Z,18.20
2018-04-07T12:26:00.417Z,18.30
2018-04-07T12:28:28.101Z,18.30
2018-04-07T12:30:56.592Z,18.30
2018-04-07T12:33:25.010Z,18.40
2018-04-07T12:35:52.675Z,18.40
2018-04-07T12:38:20.359Z,18.50
2018-04-07T12:40:48.038Z,18.60
2018-04-07T12:43:16.459Z,18.50
2018-04-07T12:45:44.097Z,18.50
2018-04-07T12:48:11.723Z,18.40
2018-04-07T12:50:39.395Z,18.30
2018-04-07T12:53:07.818Z,18.20
2018-04-07T12:55:36.203Z,18.40
2018-04-07T12:58:04.635Z,18.40
2018-04-07T13:00:32.408Z,18.40
2018-04-07T13:03:00.027Z,18.50
2018-04-07T13:05:27.711Z,18.40
2018-04-07T13:07:56.131Z,18.30
2018-04-07T13:10:23.772Z,18.30
2018-04-07T13:12:52.200Z,18.40
2018-04-07T13:15:19.866Z,18.40
2018-04-07T13:17:47.487Z,18.50
2018-04-07T13:20:15.329Z,18.70
2018-04-07T13:22:42.950Z,18.80
2018-04-07T13:25:12.162Z,18.90
2018-04-07T13:27:42.475Z,18.90
2018-04-07T13:30:10.107Z,18.90
2018-04-07T13:32:37.749Z,18.90
2018-04-07T13:35:06.223Z,18.70
2018-04-07T13:37:33.846Z,18.70
2018-04-07T13:40:01.474Z,18.80
2018-04-07T13:42:29.168Z,18.80
2018-04-07T13:44:57.574Z,18.70
2018-04-07T13:47:25.957Z,18.80
2018-04-07T13:49:53.788Z,18.70
2018-04-07T13:52:21.438Z,18.90
2018-04-07T13:54:49.087Z,18.80
2018-04-07T13:57:17.639Z,18.80
2018-04-07T13:59:45.256Z,18.80
2018-04-07T14:02:12.887Z,18.80
2018-04-07T14:04:41.494Z,18.70
2018-04-07T14:07:09.111Z,18.80
2018-04-07T14:09:36.752Z,18.90
2018-04-07T14:12:05.279Z,19.10
2018-04-07T14:14:32.904Z,19.10
2018-04-07T14:17:00.630Z,19.10
2018-04-07T14:19:28.534Z,19.20
2018-04-07T14:21:56.159Z,19.30
2018-04-07T14:24:24.610Z,19.20
2018-04-07T14:26:53.103Z,19.20
2018-04-07T14:29:20.732Z,19.10
2018-04-07T14:31:48.452Z,19.20
2018-04-07T14:34:16.381Z,19.20
2018-04-07T14:36:44.028Z,19.20
2018-04-07T14:39:11.653Z,19.20
2018-04-07T14:41:39.327Z,19.20
2018-04-07T14:44:06.962Z,19.10
2018-04-07T14:46:35.354Z,19.20
2018-04-07T14:49:03.021Z,19.20
2018-04-07T14:51:31.435Z,19.20
2018-04-07T14:53:59.063Z,19.20
2018-04-07T14:56:26.737Z,19.20
2018-04-07T14:58:54.363Z,19.20
2018-04-07T15:01:21.987Z,19.10
2018-04-07T15:03:49.663Z,19.20
2018-04-07T15:06:17.286Z,19.20
2018-04-07T15:08:44.908Z,19.30
2018-04-07T15:11:12.574Z,19.40
2018-04-07T15:13:40.215Z,19.40
2018-04-07T15:16:07.838Z,19.40
2018-04-07T15:18:36.265Z,19.20
2018-04-07T15:21:03.949Z,19.20
2018-04-07T15:23:31.621Z,19.20
2018-04-07T15:25:59.399Z,19.30
2018-04-07T15:28:27.067Z,19.30
2018-04-07T15:30:54.690Z,19.30
2018-04-07T15:33:22.364Z,19.30
2018-04-07T15:35:50.835Z,19.30
2018-04-07T15:38:18.471Z,19.30
2018-04-07T15:40:46.246Z,19.20
2018-04-07T15:43:13.884Z,19.20
2018-04-07T15:45:42.620Z,19.30
2018-04-07T15:48:10.287Z,19.20
2018-04-07T15:50:37.915Z,19.30
2018-04-07T15:53:05.538Z,19.30
2018-04-07T15:55:33.213Z,19.20
2018-04-07T15:58:00.865Z,19.20
2018-04-07T16:00:29.251Z,19.10
2018-04-07T16:02:57.802Z,19.20
2018-04-07T16:05:25.426Z,19.10
2018-04-07T16:07:53.810Z,19.10
2018-04-07T16:10:22.246Z,19.10
2018-04-07T16:12:50.319Z,19.10
2018-04-07T16:15:17.948Z,19.10
2018-04-07T16:17:45.691Z,19.00
2018-04-07T16:20:13.367Z,18.90
2018-04-07T16:22:41.930Z,18.90
2018-04-07T16:25:09.616Z,18.90
2018-04-07T16:27:38.878Z,18.80
2018-04-07T16:30:07.264Z,18.80
2018-04-07T16:32:35.029Z,18.80
2018-04-07T16:35:02.656Z,18.80
2018-04-07T16:37:30.295Z,18.70
2018-04-07T16:39:59.036Z,18.60
2018-04-07T16:42:26.667Z,18.60
2018-04-07T16:44:55.055Z,18.50
2018-04-07T16:47:23.487Z,18.40
2018-04-07T16:49:51.163Z,18.40
2018-04-07T16:52:18.859Z,18.40
2018-04-07T16:54:46.619Z,18.30
2018-04-07T16:57:14.262Z,18.30
2018-04-07T16:59:43.051Z,18.10
2018-04-07T17:02:12.426Z,18.00
2018-04-07T17:04:40.056Z,18.00
2018-04-07T17:07:07.747Z,17.90
2018-04-07T17:09:35.434Z,17.90
2018-04-07T17:12:03.097Z,17.90
2018-04-07T17:14:30.720Z,17.80
2018-04-07T17:16:59.158Z,17.70
2018-04-07T17:19:26.783Z,17.70
2018-04-07T17:21:54.410Z,17.60
2018-04-07T17:24:22.088Z,17.60
2018-04-07T17:26:49.846Z,17.60
2018-04-07T17:29:17.465Z,17.50
2018-04-07T17:31:45.150Z,17.50
2018-04-07T17:34:12.778Z,17.40
2018-04-07T17:36:40.403Z,17.30
2018-04-07T17:39:08.083Z,17.30
2018-04-07T17:41:36.475Z,17.30
2018-04-07T17:44:04.880Z,17.30
2018-04-07T17:46:32.559Z,17.30
2018-04-07T17:49:06.100Z,17.30
2018-04-07T17:51:28.606Z,17.20
2018-04-07T17:53:57.133Z,17.10
2018-04-07T17:56:24.770Z,17.10
2018-04-07T17:58:53.158Z,16.90
2018-04-07T18:01:21.619Z,16.80
2018-04-07T18:03:49.258Z,16.80
2018-04-07T18:06:17.046Z,16.70
2018-04-07T18:08:44.719Z,16.70
2018-04-07T18:11:12.604Z,16.70
2018-04-07T18:13:40.239Z,16.70
2018-04-07T18:16:07.920Z,16.70
2018-04-07T18:18:36.136Z,16.60
2018-04-07T18:21:03.793Z,16.60
2018-04-07T18:23:31.485Z,16.60
2018-04-07T18:25:59.134Z,16.50
2018-04-07T18:28:26.948Z,16.40
2018-04-07T18:30:54.824Z,16.30
2018-04-07T18:33:22.498Z,16.20
2018-04-07T18:35:50.171Z,16.20
2018-04-07T18:38:17.861Z,16.10
2018-04-07T18:40:45.485Z,16.10
2018-04-07T18:43:13.113Z,16.00
2018-04-07T18:45:40.794Z,16.00
2018-04-07T18:48:08.422Z,15.90
2018-04-07T18:50:36.085Z,15.80
2018-04-07T18:53:03.815Z,15.80
2018-04-07T18:55:31.459Z,15.70
2018-04-07T18:57:59.089Z,15.70
2018-04-07T19:00:26.767Z,15.70
2018-04-07T19:02:54.392Z,15.60
2018-04-07T19:05:22.024Z,15.60
2018-04-07T19:07:49.697Z,15.60
2018-04-07T19:10:17.335Z,15.60
2018-04-07T19:12:45.735Z,15.50
2018-04-07T19:15:14.167Z,15.40
2018-04-07T19:17:41.827Z,15.40
2018-04-07T19:20:09.468Z,15.40
2018-04-07T19:22:38.107Z,15.20
2018-04-07T19:25:06.255Z,15.20
2018-04-07T19:27:34.411Z,15.10
2018-04-07T19:30:02.080Z,15.10
2018-04-07T19:32:29.720Z,15.00
2018-04-07T19:34:57.351Z,15.00
2018-04-07T19:37:25.795Z,15.10
2018-04-07T19:39:53.431Z,15.00
2018-04-07T19:42:21.066Z,15.00
2018-04-07T19:44:48.749Z,15.00
2018-04-07T19:47:16.398Z,14.90
2018-04-07T19:49:44.051Z,14.90
2018-04-07T19:52:11.807Z,14.90
2018-04-07T19:54:39.547Z,14.80
2018-04-07T19:57:07.957Z,14.70
2018-04-07T19:59:35.765Z,14.70
2018-04-07T20:02:03.394Z,14.70
2018-04-07T20:04:31.019Z,14.60
2018-04-07T20:06:58.796Z,14.60
2018-04-07T20:09:26.434Z,14.60
2018-04-07T20:11:54.827Z,14.50
2018-04-07T20:14:23.567Z,14.50
2018-04-07T20:16:51.205Z,14.40
2018-04-07T20:19:18.827Z,14.50
2018-04-07T20:21:46.516Z,14.40
2018-04-07T20:24:15.053Z,14.40
2018-04-07T20:26:44.135Z,14.30
2018-04-07T20:29:13.507Z,14.30
2018-04-07T20:31:41.136Z,14.30
2018-04-07T20:34:08.782Z,14.20
2018-04-07T20:36:36.451Z,14.10
2018-04-07T20:39:04.235Z,14.10
2018-04-07T20:41:32.636Z,14.00
2018-04-07T20:44:01.092Z,14.00
2018-04-07T20:46:28.723Z,14.00
2018-04-07T20:48:56.531Z,14.00
2018-04-07T20:51:24.278Z,14.00
2018-04-07T20:53:52.782Z,13.90
2018-04-07T20:56:20.479Z,13.90
2018-04-07T20:58:48.160Z,13.90
2018-04-07T21:01:15.816Z,13.90
2018-04-07T21:03:44.932Z,13.80
2018-04-07T21:06:13.711Z,13.80
2018-04-07T21:08:41.617Z,13.80
2018-04-07T21:11:09.266Z,13.80
2018-04-07T21:13:37.029Z,13.80
2018-04-07T21:16:05.836Z,13.80
2018-04-07T21:18:33.511Z,13.80
2018-04-07T21:21:01.294Z,13.70
2018-04-07T21:23:28.971Z,13.70
2018-04-07T21:25:56.642Z,13.70
2018-04-07T21:28:24.316Z,13.60
2018-04-07T21:30:51.975Z,13.60
2018-04-07T21:33:19.599Z,13.50
2018-04-07T21:35:47.294Z,13.50
2018-04-07T21:38:15.013Z,13.50
2018-04-07T21:40:43.608Z,13.40
2018-04-07T21:43:11.348Z,13.40
2018-04-07T21:45:40.007Z,13.40
2018-04-07T21:48:07.662Z,13.40
2018-04-07T21:50:35.363Z,13.40
2018-04-07T21:53:03.245Z,13.30
2018-04-07T21:55:30.907Z,13.30
2018-04-07T21:57:58.649Z,13.30
2018-04-07T22:00:26.302Z,13.30
2018-04-07T22:02:54.733Z,13.20
2018-04-07T22:05:22.436Z,13.10
2018-04-07T22:07:50.395Z,13.10
2018-04-07T22:10:18.046Z,13.10
2018-04-07T22:12:45.745Z,13.10
2018-04-07T22:15:13.688Z,13.10
2018-04-07T22:17:41.412Z,13.10
2018-04-07T22:20:09.883Z,13.00
2018-04-07T22:22:37.513Z,13.00
2018-04-07T22:25:05.908Z,13.00
2018-04-07T22:27:33.713Z,13.00
2018-04-07T22:30:01.355Z,13.00
2018-04-07T22:32:29.750Z,13.00
2018-04-07T22:34:57.436Z,13.00
2018-04-07T22:37:25.083Z,12.90
2018-04-07T22:39:53.480Z,12.80
2018-04-07T22:42:21.923Z,12.80
2018-04-07T22:44:49.555Z,12.80
2018-04-07T22:47:17.181Z,12.80
2018-04-07T22:49:45.135Z,12.80
2018-04-07T22:52:13.704Z,12.80
2018-04-07T22:54:41.320Z,12.70
2018-04-07T22:57:10.410Z,12.70
2018-04-07T22:59:38.996Z,12.70
2018-04-07T23:02:06.636Z,12.60
2018-04-07T23:04:35.063Z,12.60
2018-04-07T23:07:02.699Z,12.60
2018-04-07T23:09:31.092Z,12.60
2018-04-07T23:11:59.621Z,12.60
2018-04-07T23:14:27.290Z,12.50
2018-04-07T23:16:54.928Z,12.50
2018-04-07T23:19:23.361Z,12.50
2018-04-07T23:21:51.032Z,12.50
2018-04-07T23:24:18.666Z,12.40
2018-04-07T23:26:47.112Z,12.40
2018-04-07T23:29:14.738Z,12.30
2018-04-07T23:31:44.084Z,12.30
2018-04-07T23:34:11.856Z,12.30
2018-04-07T23:36:39.478Z,12.30
2018-04-07T23:39:07.111Z,12.30
2018-04-07T23:41:34.783Z,12.20
2018-04-07T23:44:02.417Z,12.20
2018-04-07T23:46:30.814Z,12.10
2018-04-07T23:48:59.327Z,12.00
2018-04-07T23:51:26.951Z,12.00
2018-04-07T23:53:54.580Z,12.00
2018-04-07T23:56:22.270Z,11.90
2018-04-07T23:58:50.033Z,11.90
